createdAt,value
2022-12-18T00:00:06.795Z,-3.00
2022-12-18T00:00:51.392Z,-3.10
2022-12-18T00:02:19.482Z,-3.00
2022-12-18T00:03:01.260Z,-3.10
2022-12-18T00:03:43.383Z,-3.10
2022-12-18T00:04:28.235Z,-3.00
2022-12-18T00:05:10.004Z,-3.10
2022-12-18T00:05:55.363Z,-2.90
2022-12-18T00:06:37.095Z,-3.10
2022-12-18T00:07:18.715Z,-3.20
2022-12-18T00:08:00.394Z,-3.10
2022-12-18T00:08:44.908Z,-3.20
2022-12-18T00:09:31.190Z,-3.10
2022-12-18T00:10:22.051Z,-3.00
2022-12-18T00:11:11.518Z,-3.10
2022-12-18T00:11:53.263Z,-3.10
2022-12-18T00:12:36.742Z,-3.30
2022-12-18T00:13:18.544Z,-3.20
2022-12-18T00:14:01.268Z,-3.10
2022-12-18T00:14:45.895Z,-3.20
2022-12-18T00:15:27.575Z,-3.30
2022-12-18T00:16:13.518Z,-3.20
2022-12-18T00:16:55.198Z,-3.20
2022-12-18T00:17:36.866Z,-3.10
2022-12-18T00:18:21.451Z,-2.90
2022-12-18T00:19:03.567Z,-3.10
2022-12-18T00:19:45.241Z,-3.00
2022-12-18T00:20:26.866Z,-3.20
2022-12-18T00:21:11.033Z,-3.10
2022-12-18T00:21:52.721Z,-3.10
2022-12-18T00:22:34.710Z,-3.10
2022-12-18T00:23:16.367Z,-3.10
2022-12-18T00:23:58.879Z,-3.10
2022-12-18T00:24:40.580Z,-3.10
2022-12-18T00:25:22.775Z,-3.20
2022-12-18T00:26:08.294Z,-3.00
2022-12-18T00:26:49.994Z,-3.20
2022-12-18T00:27:31.675Z,-3.20
2022-12-18T00:28:13.316Z,-3.30
2022-12-18T00:28:56.550Z,-3.10
2022-12-18T00:29:41.310Z,-3.30
2022-12-18T00:30:25.888Z,-3.20
2022-12-18T00:31:13.052Z,-3.30
2022-12-18T00:31:54.876Z,-1.10
2022-12-18T00:32:36.707Z,-3.20
2022-12-18T00:33:18.927Z,-3.10
2022-12-18T00:34:00.684Z,-3.20
2022-12-18T00:34:44.980Z,-3.10
2022-12-18T00:35:26.647Z,-3.20
2022-12-18T00:36:16.660Z,-3.20
2022-12-18T00:36:58.981Z,-3.20
2022-12-18T00:37:40.788Z,-3.00
2022-12-18T00:38:26.618Z,-3.30
2022-12-18T00:39:12.102Z,-3.30
2022-12-18T00:39:53.817Z,-3.20
2022-12-18T00:40:35.551Z,-3.00
2022-12-18T00:41:39.070Z,-3.50
2022-12-18T00:42:39.455Z,-3.20
2022-12-18T00:43:21.102Z,-3.20
2022-12-18T00:44:03.449Z,-3.20
2022-12-18T00:44:45.067Z,-3.30
2022-12-18T00:45:29.344Z,-3.20
2022-12-18T00:46:11.072Z,-3.30
2022-12-18T00:46:52.767Z,-3.20
2022-12-18T00:47:34.408Z,-3.20
2022-12-18T00:48:16.080Z,-3.10
2022-12-18T00:48:58.113Z,-3.20
2022-12-18T00:49:39.761Z,-3.10
2022-12-18T00:50:21.910Z,-3.30
2022-12-18T00:51:09.644Z,-3.30
2022-12-18T00:51:51.380Z,-3.20
2022-12-18T00:52:35.757Z,-3.30
2022-12-18T00:53:20.275Z,-3.30
2022-12-18T00:54:02.464Z,-3.00
2022-12-18T00:54:44.116Z,-3.40
2022-12-18T00:55:28.111Z,-3.30
2022-12-18T00:56:09.800Z,-3.40
2022-12-18T00:56:57.610Z,-3.20
2022-12-18T00:57:41.632Z,-3.30
2022-12-18T00:58:23.300Z,-3.20
2022-12-18T00:59:05.254Z,-3.30
2022-12-18T00:59:46.890Z,-3.20
2022-12-18T01:00:28.599Z,-3.30
2022-12-18T01:01:10.391Z,-3.30
2022-12-18T01:01:54.807Z,-3.40
2022-12-18T01:02:36.677Z,-3.30
2022-12-18T01:03:20.439Z,-3.30
2022-12-18T01:04:04.133Z,-3.30
2022-12-18T01:04:46.742Z,-3.60
2022-12-18T01:05:28.591Z,-3.30
2022-12-18T01:06:12.652Z,-3.30
2022-12-18T01:06:54.295Z,-3.20
2022-12-18T01:07:36.140Z,-3.20
2022-12-18T01:08:20.168Z,-3.40
2022-12-18T01:09:02.023Z,-3.50
2022-12-18T01:09:43.797Z,-3.30
2022-12-18T01:10:25.713Z,-3.30
2022-12-18T01:11:25.530Z,-3.30
2022-12-18T01:12:10.128Z,-3.30
2022-12-18T01:12:51.917Z,-3.30
2022-12-18T01:13:33.571Z,-3.40
2022-12-18T01:14:17.463Z,-3.30
2022-12-18T01:14:59.209Z,-3.30
2022-12-18T01:15:40.997Z,-3.30
2022-12-18T01:16:23.205Z,-3.30
2022-12-18T01:17:07.308Z,-3.30
2022-12-18T01:17:49.131Z,-3.40
2022-12-18T01:18:32.988Z,-3.40
2022-12-18T01:19:14.776Z,-3.20
2022-12-18T01:19:58.752Z,-3.50
2022-12-18T01:20:40.405Z,-3.60
2022-12-18T01:21:24.029Z,-3.40
2022-12-18T01:22:05.699Z,-3.30
2022-12-18T01:22:47.411Z,-3.30
2022-12-18T01:23:29.116Z,-3.30
2022-12-18T01:24:13.187Z,-3.20
2022-12-18T01:24:54.895Z,-3.30
2022-12-18T01:25:39.669Z,-3.30
2022-12-18T01:26:21.439Z,-3.20
2022-12-18T01:27:04.768Z,-3.20
2022-12-18T01:27:46.474Z,-3.40
2022-12-18T01:28:28.116Z,-3.00
2022-12-18T01:29:12.719Z,-3.20
2022-12-18T01:29:54.999Z,-3.30
2022-12-18T01:30:36.669Z,-3.30
2022-12-18T01:31:23.870Z,-3.30
2022-12-18T01:32:08.656Z,-3.30
2022-12-18T01:32:50.452Z,-3.30
2022-12-18T01:33:32.117Z,-3.10
2022-12-18T01:34:14.131Z,-3.40
2022-12-18T01:34:55.846Z,-3.20
2022-12-18T01:35:44.221Z,-3.20
2022-12-18T01:36:31.746Z,-3.30
2022-12-18T01:37:13.408Z,-3.30
2022-12-18T01:38:00.522Z,-3.30
2022-12-18T01:38:42.629Z,-3.40
2022-12-18T01:39:27.255Z,-3.30
2022-12-18T01:40:09.475Z,-3.30
2022-12-18T01:40:58.941Z,-3.30
2022-12-18T01:41:59.459Z,-3.30
2022-12-18T01:42:41.212Z,-3.30
2022-12-18T01:43:22.918Z,-3.20
2022-12-18T01:44:42.919Z,-3.30
2022-12-18T01:45:32.185Z,-3.30
2022-12-18T01:46:14.764Z,-3.10
2022-12-18T01:46:56.555Z,-3.50
2022-12-18T01:48:01.918Z,-3.50
2022-12-18T01:48:48.147Z,-3.30
2022-12-18T01:49:29.823Z,-3.30
2022-12-18T01:50:19.173Z,-3.40
2022-12-18T01:51:47.533Z,-3.50
2022-12-18T01:52:35.775Z,-3.20
2022-12-18T01:53:21.745Z,-3.50
2022-12-18T01:54:03.494Z,-3.30
2022-12-18T01:54:46.191Z,-3.20
2022-12-18T01:55:33.641Z,-3.40
2022-12-18T01:56:20.793Z,-3.30
2022-12-18T01:57:02.599Z,-3.40
2022-12-18T01:57:44.547Z,-3.20
2022-12-18T01:58:47.407Z,-3.40
2022-12-18T01:59:34.610Z,-3.30
2022-12-18T02:00:23.203Z,-3.20
2022-12-18T02:01:05.468Z,-3.30
2022-12-18T02:01:47.331Z,-3.60
2022-12-18T02:02:31.465Z,-3.30
2022-12-18T02:03:16.204Z,-3.40
2022-12-18T02:04:22.835Z,-3.20
2022-12-18T02:05:05.110Z,-3.40
2022-12-18T02:06:12.962Z,-3.30
2022-12-18T02:07:12.523Z,-3.20
2022-12-18T02:08:20.374Z,-3.30
2022-12-18T02:09:12.444Z,-3.30
2022-12-18T02:10:03.326Z,-3.30
2022-12-18T02:11:00.478Z,-3.30
2022-12-18T02:11:55.467Z,-3.20
2022-12-18T02:13:21.531Z,-3.30
2022-12-18T02:14:09.984Z,-3.50
2022-12-18T02:15:05.622Z,-3.40
2022-12-18T02:15:47.272Z,-3.50
2022-12-18T02:16:47.053Z,-3.40
2022-12-18T02:17:59.823Z,-3.50
2022-12-18T02:18:51.302Z,-3.40
2022-12-18T02:19:51.421Z,-3.40
2022-12-18T02:20:35.414Z,-3.40
2022-12-18T02:22:02.095Z,-3.40
2022-12-18T02:23:04.943Z,-3.50
2022-12-18T02:24:15.849Z,-3.30
2022-12-18T02:25:25.117Z,-3.50
2022-12-18T02:26:21.409Z,-3.50
2022-12-18T02:27:08.672Z,-3.50
2022-12-18T02:28:40.108Z,-3.40
2022-12-18T02:29:28.956Z,-3.50
2022-12-18T02:30:57.241Z,-3.50
2022-12-18T02:31:53.043Z,-3.40
2022-12-18T02:32:44.734Z,-3.20
2022-12-18T02:33:29.322Z,-3.40
2022-12-18T02:34:12.748Z,-3.60
2022-12-18T02:34:56.971Z,-3.60
2022-12-18T02:35:41.304Z,-3.50
2022-12-18T02:36:24.457Z,-3.60
2022-12-18T02:37:51.826Z,-3.50
2022-12-18T02:38:34.827Z,-3.60
2022-12-18T02:39:18.610Z,-3.50
2022-12-18T02:40:01.124Z,-3.50
2022-12-18T02:40:44.111Z,-3.70
2022-12-18T02:41:27.072Z,-3.50
2022-12-18T02:42:09.102Z,-3.70
2022-12-18T02:42:50.923Z,-3.60
2022-12-18T02:43:32.581Z,-3.60
2022-12-18T02:44:15.360Z,-3.60
2022-12-18T02:45:00.057Z,-3.60
2022-12-18T02:45:53.163Z,-3.50
2022-12-18T02:47:25.199Z,-3.30
2022-12-18T02:48:06.923Z,-3.50
2022-12-18T02:48:49.973Z,-3.50
2022-12-18T02:49:55.645Z,-3.40
2022-12-18T02:50:42.413Z,-3.40
2022-12-18T02:51:33.725Z,-3.60
2022-12-18T02:52:44.323Z,-3.70
2022-12-18T02:53:37.266Z,-3.40
2022-12-18T02:54:29.000Z,-3.50
2022-12-18T02:55:35.103Z,-3.50
2022-12-18T02:56:36.871Z,-3.60
2022-12-18T02:57:41.044Z,-3.40
2022-12-18T02:58:34.641Z,-3.40
2022-12-18T02:59:30.286Z,-3.50
2022-12-18T03:00:14.060Z,-3.50
2022-12-18T03:01:22.620Z,-3.50
2022-12-18T03:02:27.387Z,-3.40
2022-12-18T03:03:27.672Z,-3.50
2022-12-18T03:04:16.578Z,-3.60
2022-12-18T03:05:07.114Z,-3.60
2022-12-18T03:05:53.428Z,-3.50
2022-12-18T03:06:44.546Z,-3.50
2022-12-18T03:07:39.032Z,-3.60
2022-12-18T03:08:25.173Z,-3.50
2022-12-18T03:09:18.980Z,-3.60
2022-12-18T03:10:02.123Z,-3.60
2022-12-18T03:11:09.177Z,-3.40
2022-12-18T03:12:16.094Z,-3.50
2022-12-18T03:13:08.110Z,-3.60
2022-12-18T03:13:54.879Z,-3.50
2022-12-18T03:14:39.519Z,-3.40
2022-12-18T03:15:32.816Z,-3.50
2022-12-18T03:16:20.772Z,-3.60
2022-12-18T03:17:06.160Z,-3.60
2022-12-18T03:17:56.032Z,-3.70
2022-12-18T03:18:49.246Z,-3.60
2022-12-18T03:20:20.660Z,-3.40
2022-12-18T03:21:06.738Z,-3.70
2022-12-18T03:21:52.796Z,-3.60
2022-12-18T03:22:36.120Z,-3.70
2022-12-18T03:23:26.304Z,-3.60
2022-12-18T03:24:10.439Z,-3.50
2022-12-18T03:24:53.532Z,-3.60
2022-12-18T03:25:37.884Z,-3.50
2022-12-18T03:26:25.248Z,-3.50
2022-12-18T03:27:12.596Z,-3.60
2022-12-18T03:27:58.749Z,-3.70
2022-12-18T03:28:46.714Z,-3.60
2022-12-18T03:29:36.788Z,-3.60
2022-12-18T03:30:19.226Z,-3.50
2022-12-18T03:31:03.053Z,-3.60
2022-12-18T03:32:05.439Z,-3.60
2022-12-18T03:32:55.461Z,-3.40
2022-12-18T03:34:07.434Z,-3.70
2022-12-18T03:34:51.812Z,-3.50
2022-12-18T03:35:38.316Z,-3.60
2022-12-18T03:36:20.118Z,-3.70
2022-12-18T03:37:06.455Z,-3.70
2022-12-18T03:37:48.216Z,-3.60
2022-12-18T03:38:29.981Z,-3.50
2022-12-18T03:39:11.792Z,-3.60
2022-12-18T03:39:53.545Z,-3.80
2022-12-18T03:41:12.342Z,-3.70
2022-12-18T03:42:02.232Z,-3.60
2022-12-18T03:43:08.319Z,-3.60
2022-12-18T03:44:36.852Z,-3.70
2022-12-18T03:45:31.776Z,-3.60
2022-12-18T03:46:24.272Z,-3.80
2022-12-18T03:47:17.690Z,-3.60
2022-12-18T03:48:21.063Z,-3.70
2022-12-18T03:49:20.381Z,-3.60
2022-12-18T03:50:15.855Z,-3.40
2022-12-18T03:51:01.927Z,-3.70
2022-12-18T03:52:09.597Z,-3.70
2022-12-18T03:53:09.238Z,-3.50
2022-12-18T03:54:03.394Z,-3.60
2022-12-18T03:54:48.614Z,-3.70
2022-12-18T03:55:35.493Z,-3.50
2022-12-18T03:56:19.396Z,-3.50
2022-12-18T03:57:08.042Z,-3.60
2022-12-18T03:57:54.524Z,-3.70
2022-12-18T04:01:36.401Z,-3.70
2022-12-18T04:02:26.079Z,-3.70
2022-12-18T04:03:09.629Z,-3.60
2022-12-18T04:13:10.551Z,-3.70
2022-12-18T04:13:58.032Z,-3.80
2022-12-18T04:14:39.719Z,-3.80
2022-12-18T04:15:21.402Z,-3.70
2022-12-18T04:16:06.234Z,-3.70
2022-12-18T04:16:47.940Z,-3.80
2022-12-18T04:17:29.663Z,-3.80
2022-12-18T04:18:11.343Z,-3.70
2022-12-18T04:18:53.574Z,-3.70
2022-12-18T04:19:35.252Z,-3.80
2022-12-18T04:20:20.751Z,-3.70
2022-12-18T04:21:05.519Z,-3.90
2022-12-18T04:21:47.216Z,-3.90
2022-12-18T04:22:28.879Z,-3.90
2022-12-18T04:23:10.591Z,-3.80
2022-12-18T04:23:52.246Z,-3.80
2022-12-18T04:24:33.965Z,-3.80
2022-12-18T04:25:15.664Z,-3.70
2022-12-18T04:25:59.910Z,-3.70
2022-12-18T04:26:41.569Z,-3.90
2022-12-18T04:27:26.035Z,-3.90
2022-12-18T04:28:07.945Z,-3.90
2022-12-18T04:28:49.598Z,-3.90
2022-12-18T04:29:31.415Z,-3.90
2022-12-18T04:30:13.179Z,-3.90
2022-12-18T04:30:54.973Z,-3.80
2022-12-18T04:31:36.755Z,-3.80
2022-12-18T04:32:18.456Z,-3.90
2022-12-18T04:33:02.686Z,-3.90
2022-12-18T04:33:44.320Z,-3.80
2022-12-18T04:34:26.023Z,-3.90
2022-12-18T04:35:11.441Z,-4.00
2022-12-18T04:35:53.117Z,-4.10
2022-12-18T04:36:37.444Z,-3.70
2022-12-18T04:37:19.131Z,-3.80
2022-12-18T04:38:00.969Z,-3.90
2022-12-18T04:38:42.630Z,-3.80
2022-12-18T04:39:25.362Z,-4.10
2022-12-18T04:40:08.182Z,-3.60
2022-12-18T04:40:52.069Z,-4.00
2022-12-18T04:41:36.498Z,-4.00
2022-12-18T04:42:20.692Z,-3.70
2022-12-18T04:43:02.395Z,-4.00
2022-12-18T04:43:47.207Z,-3.90
2022-12-18T04:44:31.648Z,-3.90
2022-12-18T04:45:13.336Z,-3.90
2022-12-18T04:45:55.028Z,-3.70
2022-12-18T04:46:39.839Z,-3.80
2022-12-18T04:47:21.462Z,-4.00
2022-12-18T04:48:04.563Z,-3.80
2022-12-18T04:48:47.732Z,-4.00
2022-12-18T04:49:32.259Z,-4.10
2022-12-18T04:50:14.080Z,-4.00
2022-12-18T04:50:56.916Z,-4.10
2022-12-18T04:51:38.634Z,-4.10
2022-12-18T04:52:29.411Z,-3.90
2022-12-18T04:53:11.062Z,-3.90
2022-12-18T04:53:52.765Z,-4.00
2022-12-18T04:54:34.394Z,-4.30
2022-12-18T04:55:18.760Z,-4.00
2022-12-18T04:56:10.224Z,-3.80
2022-12-18T04:56:51.868Z,-4.00
2022-12-18T04:57:33.529Z,-4.00
2022-12-18T04:58:15.299Z,-4.00
2022-12-18T04:58:59.714Z,-4.00
2022-12-18T04:59:41.399Z,-4.00
2022-12-18T05:00:23.437Z,-3.60
2022-12-18T05:01:05.564Z,-4.20
2022-12-18T05:01:47.407Z,-4.00
2022-12-18T05:02:29.236Z,-4.00
2022-12-18T05:03:10.966Z,-3.90
2022-12-18T05:03:52.863Z,-4.10
2022-12-18T05:04:34.601Z,-4.30
2022-12-18T05:05:16.639Z,-4.00
2022-12-18T05:05:58.312Z,-3.90
2022-12-18T05:06:39.962Z,-4.00
2022-12-18T05:07:21.636Z,-4.10
2022-12-18T05:08:03.404Z,-4.10
2022-12-18T05:08:45.184Z,-4.00
2022-12-18T05:09:27.915Z,-4.00
2022-12-18T05:10:10.089Z,-4.10
2022-12-18T05:11:06.308Z,-4.10
2022-12-18T05:11:48.051Z,-4.20
2022-12-18T05:12:29.753Z,-4.00
2022-12-18T05:13:11.680Z,-4.00
2022-12-18T05:13:53.340Z,-3.90
2022-12-18T05:14:34.973Z,-4.10
2022-12-18T05:15:16.792Z,-4.00
2022-12-18T05:15:58.611Z,-4.00
2022-12-18T05:16:40.432Z,-4.10
2022-12-18T05:17:22.076Z,-4.00
2022-12-18T05:18:04.644Z,-2.80
2022-12-18T05:18:46.304Z,-4.20
2022-12-18T05:19:28.081Z,-4.00
2022-12-18T05:20:10.425Z,-4.00
2022-12-18T05:20:53.400Z,-3.80
2022-12-18T05:21:35.073Z,-4.00
2022-12-18T05:22:16.991Z,-4.00
2022-12-18T05:22:58.828Z,-3.90
2022-12-18T05:23:40.940Z,-4.00
2022-12-18T05:24:22.948Z,-4.10
2022-12-18T05:25:05.452Z,-4.00
2022-12-18T05:25:58.363Z,-4.10
2022-12-18T05:26:40.170Z,-3.80
2022-12-18T05:27:23.258Z,-4.20
2022-12-18T05:28:05.130Z,-4.20
2022-12-18T05:28:47.138Z,-4.10
2022-12-18T05:29:28.891Z,-4.30
2022-12-18T05:30:11.213Z,-4.10
2022-12-18T05:30:55.842Z,-4.10
2022-12-18T05:31:39.913Z,-4.10
2022-12-18T05:32:21.672Z,-4.30
2022-12-18T05:33:03.355Z,-4.40
2022-12-18T05:33:45.279Z,-4.00
2022-12-18T05:34:26.955Z,-4.10
2022-12-18T05:35:10.990Z,-4.10
2022-12-18T05:35:57.365Z,-4.10
2022-12-18T05:36:41.732Z,-4.00
2022-12-18T05:37:23.614Z,-4.20
2022-12-18T05:38:05.254Z,-3.80
2022-12-18T05:38:47.002Z,-4.20
2022-12-18T05:39:28.772Z,-4.30
2022-12-18T05:40:11.445Z,-4.30
2022-12-18T05:40:53.874Z,-4.20
2022-12-18T05:41:35.529Z,-4.20
2022-12-18T05:42:17.243Z,-4.20
2022-12-18T05:42:58.899Z,-4.10
2022-12-18T05:43:44.142Z,-4.10
2022-12-18T05:44:26.017Z,-4.10
2022-12-18T05:45:08.058Z,-4.20
2022-12-18T05:45:50.602Z,-4.00
2022-12-18T05:46:32.350Z,-4.20
2022-12-18T05:47:14.103Z,-4.00
2022-12-18T05:47:55.769Z,-4.10
2022-12-18T05:48:38.825Z,-4.10
2022-12-18T05:50:02.625Z,-4.20
2022-12-18T05:50:46.575Z,-4.00
2022-12-18T05:51:28.685Z,-4.00
2022-12-18T05:52:10.648Z,-4.10
2022-12-18T05:52:52.314Z,-4.10
2022-12-18T05:53:34.642Z,-4.10
2022-12-18T05:54:16.362Z,-4.60
2022-12-18T05:56:24.518Z,-4.30
2022-12-18T05:57:06.250Z,-4.20
2022-12-18T05:57:47.899Z,-4.30
2022-12-18T05:58:31.419Z,-4.30
2022-12-18T05:59:16.206Z,-4.20
2022-12-18T05:59:57.872Z,-4.10
2022-12-18T06:00:41.909Z,-4.30
2022-12-18T06:01:27.219Z,-4.00
2022-12-18T06:02:09.149Z,-4.10
2022-12-18T06:02:50.989Z,-4.10
2022-12-18T06:03:38.193Z,-4.30
2022-12-18T06:04:19.994Z,-4.30
2022-12-18T06:05:01.654Z,-4.10
2022-12-18T06:05:46.448Z,-4.20
2022-12-18T06:06:31.525Z,-4.20
2022-12-18T06:07:13.161Z,-4.00
2022-12-18T06:07:54.842Z,-4.10
2022-12-18T06:08:39.326Z,-4.30
2022-12-18T06:09:24.583Z,-4.30
2022-12-18T06:10:06.762Z,-4.30
2022-12-18T06:10:53.370Z,-4.20
2022-12-18T06:11:39.747Z,-4.20
2022-12-18T06:12:22.053Z,-4.30
2022-12-18T06:13:04.346Z,-4.20
2022-12-18T06:13:46.257Z,-4.30
2022-12-18T06:14:28.063Z,-4.10
2022-12-18T06:15:10.142Z,-3.60
2022-12-18T06:15:53.747Z,-4.20
2022-12-18T06:16:35.556Z,-4.20
2022-12-18T06:17:59.333Z,-4.10
2022-12-18T06:18:44.619Z,-4.30
2022-12-18T06:19:26.260Z,-4.30
2022-12-18T06:20:08.358Z,-4.10
2022-12-18T06:20:57.157Z,-4.10
2022-12-18T06:21:38.826Z,-4.00
2022-12-18T06:22:20.840Z,-4.20
2022-12-18T06:23:02.480Z,-4.00
2022-12-18T06:23:47.441Z,-4.10
2022-12-18T06:24:29.123Z,-3.70
2022-12-18T06:26:38.771Z,-4.00
2022-12-18T06:27:23.380Z,-4.10
2022-12-18T06:28:50.444Z,-4.00
2022-12-18T06:29:32.095Z,-4.00
2022-12-18T06:30:15.560Z,-4.00
2022-12-18T06:30:57.210Z,-3.90
2022-12-18T06:31:38.947Z,-4.10
2022-12-18T06:32:23.295Z,-4.20
2022-12-18T06:33:05.060Z,-4.00
2022-12-18T06:33:46.711Z,-4.00
2022-12-18T06:34:28.407Z,-4.10
2022-12-18T06:36:00.865Z,-4.00
2022-12-18T06:36:42.767Z,-4.10
2022-12-18T06:37:30.140Z,-4.10
2022-12-18T06:38:11.930Z,-3.70
2022-12-18T06:38:53.678Z,-4.00
2022-12-18T06:39:37.901Z,-3.70
2022-12-18T06:40:19.637Z,-3.60
2022-12-18T06:41:01.395Z,-4.10
2022-12-18T06:41:43.019Z,-4.10
2022-12-18T06:42:26.301Z,-4.20
2022-12-18T06:43:08.050Z,-4.20
2022-12-18T06:43:52.178Z,-4.00
2022-12-18T06:44:36.235Z,-4.20
2022-12-18T06:45:18.014Z,-3.80
2022-12-18T06:46:03.476Z,-4.20
2022-12-18T06:46:47.718Z,-4.10
2022-12-18T06:47:29.373Z,-4.10
2022-12-18T06:48:11.011Z,-4.10
2022-12-18T06:48:55.462Z,-3.90
2022-12-18T06:49:37.100Z,-3.90
2022-12-18T06:50:18.832Z,-4.00
2022-12-18T06:51:00.708Z,-4.10
2022-12-18T06:51:42.856Z,-4.00
2022-12-18T06:52:27.579Z,-3.70
2022-12-18T06:53:09.332Z,-4.00
2022-12-18T06:53:51.288Z,-4.10
2022-12-18T06:55:15.084Z,-4.20
2022-12-18T06:56:09.491Z,-4.00
2022-12-18T06:56:52.127Z,-4.10
2022-12-18T06:58:15.912Z,-4.00
2022-12-18T06:58:58.781Z,-4.00
2022-12-18T06:59:40.452Z,-4.00
2022-12-18T07:00:22.154Z,-3.90
2022-12-18T07:01:08.324Z,-3.70
2022-12-18T07:02:33.038Z,-4.10
2022-12-18T07:03:57.957Z,-4.00
2022-12-18T07:04:42.303Z,-4.00
2022-12-18T07:05:23.965Z,-4.30
2022-12-18T07:06:07.357Z,-3.90
2022-12-18T07:06:49.023Z,-4.20
2022-12-18T07:07:30.685Z,-4.10
2022-12-18T07:08:12.302Z,-4.00
2022-12-18T07:08:54.979Z,-4.20
2022-12-18T07:09:36.695Z,-4.00
2022-12-18T07:10:18.419Z,-4.00
2022-12-18T07:11:00.305Z,-4.10
2022-12-18T07:11:49.830Z,-4.00
2022-12-18T07:12:31.553Z,-4.10
2022-12-18T07:13:15.887Z,-4.10
2022-12-18T07:14:00.746Z,-4.10
2022-12-18T07:14:42.432Z,-4.10
2022-12-18T07:16:22.330Z,-4.10
2022-12-18T07:17:06.566Z,-4.00
2022-12-18T07:17:48.511Z,-4.20
2022-12-18T07:18:30.179Z,-4.20
2022-12-18T07:19:11.848Z,-4.00
2022-12-18T07:19:53.620Z,-4.10
2022-12-18T07:21:20.028Z,-4.10
2022-12-18T07:22:02.283Z,-4.10
2022-12-18T07:22:46.433Z,-4.00
2022-12-18T07:23:28.099Z,-4.10
2022-12-18T07:24:12.572Z,-3.90
2022-12-18T07:24:54.633Z,-4.10
2022-12-18T07:25:37.873Z,-4.10
2022-12-18T07:26:21.381Z,-4.00
2022-12-18T07:27:03.239Z,-3.90
2022-12-18T07:27:44.999Z,-4.00
2022-12-18T07:28:30.216Z,-4.00
2022-12-18T07:29:13.296Z,-4.20
2022-12-18T07:29:58.617Z,-4.20
2022-12-18T07:30:40.319Z,-4.10
2022-12-18T07:32:11.879Z,-4.10
2022-12-18T07:32:54.317Z,-3.90
2022-12-18T07:33:37.699Z,-3.70
2022-12-18T07:34:20.060Z,-4.10
2022-12-18T07:35:02.005Z,-4.10
2022-12-18T07:35:46.320Z,-4.00
2022-12-18T07:36:28.051Z,-4.00
2022-12-18T07:37:09.709Z,-3.90
2022-12-18T07:37:51.443Z,-4.20
2022-12-18T07:38:37.266Z,-4.20
2022-12-18T07:39:19.073Z,-4.10
2022-12-18T07:40:00.920Z,-3.60
2022-12-18T07:40:42.613Z,-4.10
2022-12-18T07:41:24.375Z,-4.00
2022-12-18T07:43:09.678Z,-3.70
2022-12-18T07:43:51.350Z,-4.10
2022-12-18T07:44:35.879Z,-3.80
2022-12-18T07:45:17.591Z,-4.00
2022-12-18T07:45:59.980Z,-3.80
2022-12-18T07:46:41.739Z,-3.90
2022-12-18T07:48:08.789Z,-3.90
2022-12-18T07:48:50.678Z,-3.80
2022-12-18T07:49:32.707Z,-3.80
2022-12-18T07:50:14.838Z,-3.90
2022-12-18T07:51:01.063Z,-3.80
2022-12-18T07:51:42.783Z,-3.80
2022-12-18T07:52:26.392Z,-3.90
2022-12-18T07:53:08.385Z,-3.80
2022-12-18T07:53:52.655Z,-3.80
2022-12-18T07:54:37.122Z,-3.80
2022-12-18T07:55:19.030Z,-3.80
2022-12-18T07:56:26.550Z,-3.70
2022-12-18T07:57:09.928Z,-3.70
2022-12-18T07:58:04.241Z,-3.70
2022-12-18T07:58:51.805Z,-3.60
2022-12-18T07:59:33.472Z,-3.60
2022-12-18T08:00:18.148Z,-3.60
2022-12-18T08:01:08.132Z,-3.70
2022-12-18T08:02:32.912Z,-3.40
2022-12-18T08:03:17.532Z,-3.50
2022-12-18T08:03:59.544Z,-3.50
2022-12-18T08:04:44.019Z,-3.70
2022-12-18T08:05:28.544Z,-3.60
2022-12-18T08:06:11.052Z,-3.70
2022-12-18T08:06:58.780Z,-3.60
2022-12-18T08:07:43.347Z,-3.60
2022-12-18T08:08:25.028Z,-3.40
2022-12-18T08:09:06.772Z,-3.50
2022-12-18T08:09:50.213Z,-3.50
2022-12-18T08:10:31.917Z,-3.60
2022-12-18T08:11:13.582Z,-3.60
2022-12-18T08:11:55.452Z,-3.30
2022-12-18T08:12:37.111Z,-3.70
2022-12-18T08:13:18.738Z,-3.10
2022-12-18T08:14:00.444Z,-3.50
2022-12-18T08:14:42.108Z,-3.50
2022-12-18T08:15:23.819Z,-3.40
2022-12-18T08:16:07.911Z,-3.60
2022-12-18T08:16:49.760Z,-3.40
2022-12-18T08:17:31.451Z,-3.10
2022-12-18T08:18:15.391Z,-3.60
2022-12-18T08:18:59.461Z,-3.50
2022-12-18T08:19:41.176Z,-3.50
2022-12-18T08:20:25.640Z,-3.40
2022-12-18T08:21:18.821Z,-3.40
2022-12-18T08:22:03.631Z,-3.40
2022-12-18T08:22:45.785Z,-3.50
2022-12-18T08:23:28.829Z,-3.50
2022-12-18T08:24:11.851Z,-3.40
2022-12-18T08:24:53.496Z,-3.40
2022-12-18T08:25:35.177Z,-3.40
2022-12-18T08:26:17.115Z,-3.30
2022-12-18T08:27:28.003Z,-3.40
2022-12-18T08:28:00.588Z,-3.40
2022-12-18T08:28:47.301Z,-3.20
2022-12-18T08:29:31.286Z,-3.20
2022-12-18T08:30:13.330Z,-3.20
2022-12-18T08:30:55.042Z,-3.10
2022-12-18T08:31:36.876Z,-3.10
2022-12-18T08:32:18.588Z,-2.90
2022-12-18T08:33:00.355Z,-3.10
2022-12-18T08:33:43.126Z,-2.80
2022-12-18T08:34:25.262Z,-3.10
2022-12-18T08:35:12.599Z,-3.10
2022-12-18T08:35:54.550Z,-3.10
2022-12-18T08:38:00.692Z,-3.10
2022-12-18T08:38:42.452Z,-2.90
2022-12-18T08:39:24.171Z,-3.10
2022-12-18T08:40:06.658Z,-3.20
2022-12-18T08:40:48.320Z,-3.00
2022-12-18T08:41:29.984Z,-3.30
2022-12-18T08:42:41.337Z,-3.00
2022-12-18T08:43:46.224Z,-3.00
2022-12-18T08:44:39.710Z,-3.00
2022-12-18T08:45:25.669Z,-3.00
2022-12-18T08:46:07.738Z,-3.10
2022-12-18T08:48:19.207Z,-2.90
2022-12-18T08:49:04.641Z,-2.90
2022-12-18T08:49:49.116Z,-2.80
2022-12-18T08:50:30.810Z,-2.70
2022-12-18T08:51:15.623Z,-2.90
2022-12-18T08:52:00.839Z,-2.70
2022-12-18T08:52:42.613Z,-3.00
2022-12-18T08:53:34.153Z,-2.80
2022-12-18T08:54:17.692Z,-2.70
2022-12-18T08:55:43.572Z,-2.80
2022-12-18T08:57:10.881Z,-2.50
2022-12-18T08:57:52.568Z,-2.70
2022-12-18T08:58:34.414Z,-2.60
2022-12-18T08:59:20.102Z,-2.70
2022-12-18T09:00:02.497Z,-2.70
2022-12-18T09:00:44.415Z,-2.60
2022-12-18T09:01:26.227Z,-3.00
2022-12-18T09:02:11.553Z,-2.30
2022-12-18T09:02:57.060Z,-2.60
2022-12-18T09:04:22.985Z,-2.60
2022-12-18T09:05:04.983Z,-2.70
2022-12-18T09:05:50.201Z,-2.50
2022-12-18T09:06:32.099Z,-2.60
2022-12-18T09:07:13.976Z,-2.60
2022-12-18T09:07:55.608Z,-2.60
2022-12-18T09:08:40.491Z,-2.50
2022-12-18T09:09:25.386Z,-2.70
2022-12-18T09:10:07.653Z,-2.60
2022-12-18T09:10:50.767Z,-2.40
2022-12-18T09:12:14.991Z,-2.50
2022-12-18T09:12:57.129Z,-2.70
2022-12-18T09:13:39.254Z,-2.40
2022-12-18T09:15:06.552Z,-2.40
2022-12-18T09:15:56.970Z,-2.40
2022-12-18T09:16:38.832Z,-2.50
2022-12-18T09:17:20.547Z,-2.60
2022-12-18T09:18:02.224Z,-2.40
2022-12-18T09:18:47.288Z,-2.50
2022-12-18T09:19:30.246Z,-2.40
2022-12-18T09:20:11.880Z,-2.30
2022-12-18T09:20:53.950Z,-2.40
2022-12-18T09:22:22.018Z,-2.30
2022-12-18T09:23:06.668Z,-2.40
2022-12-18T09:24:33.938Z,-2.40
2022-12-18T09:25:23.300Z,-2.40
2022-12-18T09:26:05.483Z,-2.40
2022-12-18T09:27:29.612Z,-2.40
2022-12-18T09:28:13.936Z,-2.40
2022-12-18T09:28:57.759Z,-2.40
2022-12-18T09:29:39.416Z,-2.20
2022-12-18T09:30:21.142Z,-2.20
2022-12-18T09:31:11.743Z,-2.10
2022-12-18T09:31:57.400Z,-2.20
2022-12-18T09:32:39.226Z,-2.10
2022-12-18T09:33:20.977Z,-2.30
2022-12-18T09:34:02.796Z,-2.10
2022-12-18T09:34:44.622Z,-2.10
2022-12-18T09:35:27.173Z,-2.10
2022-12-18T09:36:11.688Z,-2.10
2022-12-18T09:36:53.561Z,-2.10
2022-12-18T09:37:35.378Z,-2.00
2022-12-18T09:38:23.263Z,-2.10
2022-12-18T09:39:08.518Z,-2.10
2022-12-18T09:39:50.717Z,-2.10
2022-12-18T09:40:49.108Z,-2.00
2022-12-18T09:41:45.638Z,-2.00
2022-12-18T09:42:27.443Z,-1.90
2022-12-18T09:43:23.262Z,-2.00
2022-12-18T09:44:33.840Z,-2.00
2022-12-18T09:46:02.896Z,-2.00
2022-12-18T09:47:10.393Z,-1.90
2022-12-18T09:47:56.404Z,-1.80
2022-12-18T09:48:44.966Z,-1.90
2022-12-18T09:49:31.337Z,-1.80
2022-12-18T09:50:30.943Z,-1.90
2022-12-18T09:51:34.387Z,-1.70
2022-12-18T09:52:29.339Z,-1.80
2022-12-18T09:53:20.357Z,-2.10
2022-12-18T09:54:06.538Z,-1.80
2022-12-18T09:54:54.960Z,-1.80
2022-12-18T09:56:25.714Z,-1.70
2022-12-18T09:57:07.449Z,-1.70
2022-12-18T09:57:56.653Z,-1.80
2022-12-18T09:58:47.916Z,-1.60
2022-12-18T09:59:37.331Z,-1.60
2022-12-18T10:00:27.305Z,-1.70
2022-12-18T10:01:15.451Z,-1.50
2022-12-18T10:01:57.757Z,-1.80
2022-12-18T10:02:39.645Z,-1.90
2022-12-18T10:03:22.268Z,-1.60
2022-12-18T10:04:03.960Z,-1.70
2022-12-18T10:04:55.004Z,-1.60
2022-12-18T10:05:56.907Z,-1.40
2022-12-18T10:06:52.369Z,-1.10
2022-12-18T10:07:41.330Z,-1.60
2022-12-18T10:08:44.253Z,-1.60
2022-12-18T10:09:35.610Z,-1.70
2022-12-18T10:10:40.972Z,-1.60
2022-12-18T10:11:39.893Z,-1.10
2022-12-18T10:12:52.982Z,-1.30
2022-12-18T10:13:47.679Z,-1.40
2022-12-18T10:14:54.541Z,-1.50
2022-12-18T10:15:57.330Z,-1.30
2022-12-18T10:17:07.449Z,-1.30
2022-12-18T10:19:11.082Z,-1.40
2022-12-18T10:20:42.649Z,-1.30
2022-12-18T10:21:44.851Z,-1.40
2022-12-18T10:22:35.308Z,-1.30
2022-12-18T10:23:47.953Z,-1.20
2022-12-18T10:25:58.764Z,-1.50
2022-12-18T10:26:42.448Z,-1.00
2022-12-18T10:27:27.384Z,-1.20
2022-12-18T10:28:14.386Z,-1.00
2022-12-18T10:29:02.179Z,-1.10
2022-12-18T10:29:47.759Z,-1.20
2022-12-18T10:30:29.475Z,-1.10
2022-12-18T10:31:20.655Z,-1.10
2022-12-18T10:32:02.497Z,-0.70